KHNB

Details ICAO KHNB
Name HUNTINGBURG
Region United States
Timezone America/Indiana/Vincennes (UTC-5.0)
Plans Departing 0
Arriving 2
Stats Elevation 529 ft / 161 m (AMSL)
Location 38.249028° -86.953704°
Runways 1
Magnetic Variation 3.919° W
Sunrise 2017-12-12 12:56:49 UTC / 2017-12-12 07:56:49 Local
Sunset 2017-12-12 22:29:21 UTC / 2017-12-12 17:29:21 Local
Advertisement - Login to hide

Runways

ID Width Length Bearing (true) Bearing (mag) Surface Threshold Offset Overrun Length
09 75 ft / 23 m 4,989 ft / 1,521 m 90.65° 94.57° Asphalt 0 ft / 0 m 0 ft / 0 m
27 75 ft / 23 m 4,989 ft / 1,521 m 270.66° 274.58° Asphalt 0 ft / 0 m 0 ft / 0 m

Map

Weather


0- 5 10 15 20 25 30 35+ Temperature / ° C

Clouds and Precipitation
Forecast for 2017-12-12 18:00 UTC. Updated 5 minutes ago

Ground ~20,000 ft ~40,000 ft Winds

METAR

KHNB 121656Z AUTO 30017G20KT 10SM CLR M01/M10 A3011 RMK AO2 SLP201 T10111100 FZRANO

TAF

TAF AMD KHNB 121440Z 1215/1312 32016G25KT P6SM BKN035 FM121600 32016G25KT P6SM SCT035 FM130000 29007KT P6SM SCT250 FM130700 VRB04KT P6SM SKC

Frequencies

Recorded 118.25 MHz AWOS 3
Clearance 118.80 MHz CLNC DEL
Unicom 122.80 MHz CTAF/UNICOM
Approach 126.40 MHz EVANSVILLE APP/DEP
Warning: Do not use this data for real-world aviation or navigation. No guarantee of current accuracy is given.